Time;durP1;ratioP1;P1;durP2;ratioP2;P2;SDS_P1;SDS_P2;PMS_P1;PMS_P2;Temp;Humidity;BMP_temperature;BMP_pressure;BME280_temperature;BME280_humidity;BME280_pressure;Samples;Min_cycle;Max_cycle;Signal;HPM_P1;HPM_P2
2023/09/29 00:00:35;;;;;;;119.07;58.22;;;19.70;93.00;;;;;;4970919;28;90916;-48
2023/09/29 00:03:01;;;;;;;135.32;63.78;;;19.70;92.40;;;;;;4963099;28;89825;-47
2023/09/29 00:05:28;;;;;;;123.15;59.88;;;19.70;92.90;;;;;;4965732;28;90239;-48
2023/09/29 00:07:54;;;;;;;126.95;61.40;;;19.70;92.60;;;;;;4961215;28;90734;-47
2023/09/29 00:10:21;;;;;;;129.13;60.72;;;19.70;92.80;;;;;;4968095;28;89588;-48
2023/09/29 00:12:51;;;;;;;121.53;58.38;;;19.70;92.30;;;;;;4965612;28;89808;-46
2023/09/29 00:15:18;;;;;;;125.55;61.33;;;19.70;92.70;;;;;;4964848;28;90980;-47
2023/09/29 00:17:44;;;;;;;125.32;60.33;;;19.70;92.70;;;;;;4965110;28;90219;-47
2023/09/29 00:20:26;;;;;;;116.65;57.63;;;19.70;92.70;;;;;;4968078;28;90662;-46
2023/09/29 00:22:55;;;;;;;;;;;19.70;92.50;;;;;;4967529;28;90068;-47
2023/09/29 00:25:21;;;;;;;122.90;58.78;;;19.70;93.00;;;;;;4965935;28;90522;-46
2023/09/29 00:27:47;;;;;;;127.03;60.53;;;19.70;92.60;;;;;;4970327;28;90905;-46
2023/09/29 00:30:14;;;;;;;123.10;59.45;;;19.70;93.10;;;;;;4969193;28;89525;-51
2023/09/29 00:32:46;;;;;;;121.30;59.95;;;19.70;92.80;;;;;;4969644;28;89941;-45
2023/09/29 00:35:24;;;;;;;123.25;58.83;;;19.70;92.80;;;;;;4966677;28;89906;-46
2023/09/29 00:37:51;;;;;;;123.03;60.42;;;19.70;92.60;;;;;;4962390;28;90125;-47
2023/09/29 00:40:16;;;;;;;128.73;62.35;;;19.70;92.80;;;;;;4966249;28;89810;-46
2023/09/29 00:42:43;;;;;;;128.82;61.63;;;19.70;93.00;;;;;;4969412;28;89204;-46
2023/09/29 00:45:10;;;;;;;117.13;58.58;;;19.70;93.00;;;;;;4969191;28;90496;-45
2023/09/29 00:47:37;;;;;;;121.93;59.53;;;19.70;92.70;;;;;;4968221;28;90844;-45
2023/09/29 00:50:10;;;;;;;120.88;59.22;;;19.70;92.70;;;;;;4968225;28;90535;-44
2023/09/29 00:52:38;;;;;;;121.97;60.17;;;19.60;92.60;;;;;;4951492;28;91253;-44
2023/09/29 00:55:13;;;;;;;126.70;61.00;;;19.70;93.00;;;;;;4965553;28;89551;-47
2023/09/29 00:57:44;;;;;;;125.88;60.95;;;19.70;93.10;;;;;;4973660;28;89267;-44
2023/09/29 01:00:19;;;;;;;117.73;57.93;;;19.70;92.80;;;;;;4970151;28;90734;-44
2023/09/29 01:02:44;;;;;;;126.30;60.80;;;19.70;92.60;;;;;;4966540;28;91090;-44
2023/09/29 01:05:13;;;;;;;120.80;59.08;;;19.70;92.80;;;;;;4965719;28;89623;-46
2023/09/29 01:07:41;;;;;;;118.80;58.75;;;19.70;92.70;;;;;;4965024;28;89451;-45
2023/09/29 01:10:08;;;;;;;122.20;58.97;;;19.70;92.60;;;;;;4964179;28;91002;-44
2023/09/29 01:12:35;;;;;;;123.03;59.55;;;19.70;92.70;;;;;;4964707;28;91009;-44
2023/09/29 01:15:00;;;;;;;125.60;60.95;;;19.70;92.60;;;;;;4966735;28;91016;-44
2023/09/29 01:17:26;;;;;;;122.15;59.42;;;19.70;92.80;;;;;;4971258;28;89753;-44
2023/09/29 01:19:51;;;;;;;119.78;58.75;;;19.70;92.70;;;;;;4965467;28;89775;-46
2023/09/29 01:22:18;;;;;;;127.22;61.20;;;19.70;92.40;;;;;;4945124;28;90324;-46
2023/09/29 01:24:45;;;;;;;120.55;58.42;;;19.70;92.70;;;;;;4964527;28;94171;-44
2023/09/29 01:27:10;;;;;;;122.82;59.92;;;19.70;92.50;;;;;;4962615;28;89958;-45
2023/09/29 01:29:36;;;;;;;122.60;60.25;;;19.70;92.70;;;;;;4961164;28;89868;-44
2023/09/29 01:32:02;;;;;;;117.28;58.17;;;19.70;92.60;;;;;;4967476;28;89175;-44
2023/09/29 01:34:31;;;;;;;125.53;60.38;;;19.70;92.00;;;;;;4963479;28;89979;-44
2023/09/29 01:36:59;;;;;;;122.10;59.53;;;19.70;92.50;;;;;;4966740;28;91889;-44
2023/09/29 01:39:25;;;;;;;124.53;59.38;;;19.70;92.60;;;;;;4965209;28;90717;-44
2023/09/29 01:41:51;;;;;;;115.80;58.25;;;19.70;92.60;;;;;;4970489;28;89921;-44
2023/09/29 01:44:16;;;;;;;116.75;57.83;;;19.70;92.50;;;;;;4966415;28;89933;-44
2023/09/29 01:46:42;;;;;;;125.72;60.50;;;19.70;92.40;;;;;;4968375;28;90637;-45
2023/09/29 01:49:07;;;;;;;125.20;59.55;;;19.70;92.60;;;;;;4967833;28;89676;-46
2023/09/29 01:51:33;;;;;;;117.95;57.35;;;19.70;92.50;;;;;;4970913;28;90197;-44
2023/09/29 01:53:59;;;;;;;123.88;59.53;;;19.80;92.40;;;;;;4970440;28;92932;-44
2023/09/29 01:56:24;;;;;;;115.90;57.67;;;19.80;92.40;;;;;;4968566;28;94410;-43
2023/09/29 01:58:50;;;;;;;116.90;57.60;;;19.70;92.30;;;;;;4967217;28;90725;-46
2023/09/29 02:01:16;;;;;;;117.63;59.10;;;19.70;92.30;;;;;;4966548;28;90041;-46
2023/09/29 02:03:44;;;;;;;117.82;58.20;;;19.80;92.30;;;;;;4963856;28;90897;-46
2023/09/29 02:06:09;;;;;;;124.32;60.00;;;19.80;92.20;;;;;;4970015;28;90260;-48
2023/09/29 02:08:35;;;;;;;118.90;58.83;;;19.80;92.40;;;;;;4970264;28;90170;-51
2023/09/29 02:11:01;;;;;;;119.38;58.17;;;19.70;92.30;;;;;;4973678;28;89474;-49
2023/09/29 02:13:27;;;;;;;118.68;58.95;;;19.80;92.00;;;;;;4966890;28;89475;-51
2023/09/29 02:15:52;;;;;;;114.78;57.42;;;19.80;92.30;;;;;;4971347;28;90240;-49
2023/09/29 02:18:18;;;;;;;117.13;58.42;;;19.80;92.00;;;;;;4967413;28;89667;-48
2023/09/29 02:20:47;;;;;;;119.03;58.58;;;19.80;92.20;;;;;;4969162;28;90378;-45
2023/09/29 02:23:14;;;;;;;120.25;59.15;;;19.80;92.20;;;;;;4972294;28;90705;-45
2023/09/29 02:25:41;;;;;;;114.50;57.33;;;19.80;92.10;;;;;;4966595;28;89605;-45
2023/09/29 02:28:10;;;;;;;118.10;59.42;;;19.80;92.20;;;;;;4967401;28;91757;-46
2023/09/29 02:30:36;;;;;;;118.88;59.25;;;19.80;92.20;;;;;;4968631;28;89698;-47
2023/09/29 02:33:02;;;;;;;114.97;57.58;;;19.80;92.10;;;;;;4971117;28;91342;-46
2023/09/29 02:35:28;;;;;;;112.20;56.58;;;19.80;91.80;;;;;;4970521;28;90381;-47
2023/09/29 02:37:54;;;;;;;114.53;57.55;;;19.80;91.90;;;;;;4968428;28;89923;-48
2023/09/29 02:40:22;;;;;;;116.88;57.63;;;19.80;91.90;;;;;;4969599;28;90215;-45
2023/09/29 02:42:47;;;;;;;116.43;58.15;;;19.80;92.00;;;;;;4969562;28;90482;-45
2023/09/29 02:45:14;;;;;;;118.38;58.78;;;19.80;92.10;;;;;;4967650;28;89359;-47
2023/09/29 02:47:39;;;;;;;115.45;57.88;;;19.80;92.00;;;;;;4967830;28;89417;-46
2023/09/29 02:50:14;;;;;;;113.70;56.85;;;19.80;92.00;;;;;;4971268;28;89727;-46
2023/09/29 02:52:40;;;;;;;116.15;57.63;;;19.90;92.00;;;;;;4965672;28;93073;-46
2023/09/29 02:55:12;;;;;;;114.18;57.75;;;19.80;91.90;;;;;;4963405;28;90516;-48
2023/09/29 02:57:37;;;;;;;;;;;19.90;91.90;;;;;;4967413;28;89922;-46
2023/09/29 03:00:22;;;;;;;113.30;56.55;;;19.90;91.90;;;;;;4967319;28;89919;-47
2023/09/29 03:02:48;;;;;;;112.55;57.00;;;19.90;91.60;;;;;;4962987;28;90257;-46
2023/09/29 03:05:15;;;;;;;116.43;58.60;;;19.90;91.80;;;;;;4971373;28;90273;-48
2023/09/29 03:07:41;;;;;;;117.78;58.22;;;19.90;91.80;;;;;;4968226;28;89641;-44
2023/09/29 03:10:07;;;;;;;113.72;57.55;;;19.90;91.80;;;;;;4969272;28;89920;-44
2023/09/29 03:12:33;;;;;;;115.32;57.47;;;19.90;91.70;;;;;;4969774;28;90492;-44
2023/09/29 03:14:59;;;;;;;117.80;58.35;;;19.90;91.70;;;;;;4969393;28;90191;-45
2023/09/29 03:17:25;;;;;;;114.60;57.50;;;19.90;91.80;;;;;;4964952;28;91869;-45
2023/09/29 03:19:52;;;;;;;116.25;57.92;;;19.90;91.70;;;;;;4952110;28;90459;-44
2023/09/29 03:22:18;;;;;;;111.47;56.95;;;19.90;91.80;;;;;;4966259;28;90662;-44
2023/09/29 03:24:44;;;;;;;113.45;56.88;;;19.90;91.60;;;;;;4968233;28;91648;-44
2023/09/29 03:27:10;;;;;;;114.18;56.88;;;19.90;91.60;;;;;;4968666;28;91885;-45
2023/09/29 03:29:35;;;;;;;113.50;57.67;;;19.90;91.70;;;;;;4966128;28;94351;-45
2023/09/29 03:32:01;;;;;;;112.45;56.70;;;19.90;91.60;;;;;;4971415;28;89865;-45
2023/09/29 03:34:27;;;;;;;115.45;57.63;;;19.90;91.70;;;;;;4968294;28;90552;-46
2023/09/29 03:36:53;;;;;;;114.20;57.05;;;19.90;91.80;;;;;;4971542;28;89564;-44
2023/09/29 03:39:18;;;;;;;115.55;57.92;;;19.90;91.80;;;;;;4968617;28;91472;-44
2023/09/29 03:41:44;;;;;;;114.25;57.15;;;19.90;91.80;;;;;;4967525;28;90811;-45
2023/09/29 03:44:12;;;;;;;113.72;57.05;;;19.80;91.80;;;;;;4963824;28;90051;-45
2023/09/29 03:46:38;;;;;;;111.30;56.33;;;19.80;91.90;;;;;;4971890;28;89745;-45
2023/09/29 03:49:04;;;;;;;114.57;57.17;;;19.80;91.80;;;;;;4969977;28;89544;-45
2023/09/29 03:51:30;;;;;;;116.20;57.53;;;19.80;91.80;;;;;;4969194;28;90573;-44
2023/09/29 03:53:56;;;;;;;113.20;56.67;;;19.80;91.90;;;;;;4964100;28;90507;-45
2023/09/29 03:56:25;;;;;;;113.22;56.47;;;19.80;91.90;;;;;;4971884;28;89494;-44
2023/09/29 03:58:55;;;;;;;113.20;56.85;;;19.80;91.90;;;;;;4971182;28;89692;-44
2023/09/29 04:01:25;;;;;;;113.68;56.85;;;19.80;92.00;;;;;;4964206;28;90503;-45
2023/09/29 04:03:50;;;;;;;114.57;57.33;;;19.80;91.90;;;;;;4958818;28;90092;-45
2023/09/29 04:06:16;;;;;;;115.43;57.30;;;19.80;91.90;;;;;;4959043;28;91301;-44
2023/09/29 04:08:42;;;;;;;111.45;56.30;;;19.70;91.90;;;;;;4965745;28;89800;-43
2023/09/29 04:11:08;;;;;;;112.18;56.35;;;19.70;92.00;;;;;;4968888;28;90252;-45
2023/09/29 04:13:33;;;;;;;114.00;57.40;;;19.70;91.80;;;;;;4968484;28;90030;-43
2023/09/29 04:16:06;;;;;;;113.63;56.80;;;19.70;92.00;;;;;;4971880;28;89860;-44
2023/09/29 04:18:32;;;;;;;111.32;56.17;;;19.70;91.80;;;;;;4968147;28;91516;-45
2023/09/29 04:20:59;;;;;;;111.95;56.95;;;19.70;92.10;;;;;;4965444;28;90235;-45
2023/09/29 04:23:24;;;;;;;110.85;56.25;;;19.70;92.10;;;;;;4971878;28;90896;-45
2023/09/29 04:25:50;;;;;;;115.43;57.30;;;19.70;92.00;;;;;;4975307;28;91228;-46
2023/09/29 04:28:15;;;;;;;109.10;56.47;;;19.70;92.20;;;;;;4973080;28;90248;-45
2023/09/29 04:30:41;;;;;;;113.57;56.92;;;19.70;92.00;;;;;;4966321;28;93773;-44
2023/09/29 04:33:07;;;;;;;111.57;56.45;;;19.70;92.30;;;;;;4974330;28;89809;-45
2023/09/29 04:35:34;;;;;;;113.85;56.97;;;19.60;92.20;;;;;;4969139;28;91562;-46
2023/09/29 04:38:00;;;;;;;112.97;56.03;;;19.70;92.30;;;;;;4969781;28;90260;-44
2023/09/29 04:40:25;;;;;;;110.43;55.70;;;19.60;92.20;;;;;;4965593;28;89695;-45
2023/09/29 04:42:51;;;;;;;110.22;56.22;;;19.60;92.20;;;;;;4974847;28;89750;-44
2023/09/29 04:45:17;;;;;;;109.75;55.90;;;19.70;92.10;;;;;;4973147;28;89899;-44
2023/09/29 04:47:42;;;;;;;112.75;56.97;;;19.70;92.20;;;;;;4974896;28;89160;-44
2023/09/29 04:50:09;;;;;;;112.13;56.85;;;19.70;92.30;;;;;;4973981;28;89739;-43
2023/09/29 04:52:35;;;;;;;110.45;56.35;;;19.70;92.20;;;;;;4971998;28;91498;-44
2023/09/29 04:55:00;;;;;;;111.20;56.15;;;19.70;92.20;;;;;;4962695;28;91258;-44
2023/09/29 04:57:26;;;;;;;109.53;55.95;;;19.70;92.10;;;;;;4971048;28;89685;-45
2023/09/29 04:59:52;;;;;;;110.28;55.90;;;19.70;91.90;;;;;;4966308;28;91280;-45
2023/09/29 05:02:17;;;;;;;113.20;56.78;;;19.70;92.20;;;;;;4967606;28;90388;-43
2023/09/29 05:04:43;;;;;;;110.18;56.10;;;19.80;92.30;;;;;;4968146;28;90368;-45
2023/09/29 05:07:09;;;;;;;113.32;55.97;;;19.80;92.20;;;;;;4970749;28;90550;-44
2023/09/29 05:09:35;;;;;;;111.47;56.35;;;19.80;92.00;;;;;;4967675;28;93299;-44
2023/09/29 05:12:01;;;;;;;111.50;56.22;;;19.80;92.10;;;;;;4969329;28;90261;-47
2023/09/29 05:14:26;;;;;;;110.57;56.33;;;19.80;92.00;;;;;;4973451;28;90495;-45
2023/09/29 05:16:53;;;;;;;113.68;56.70;;;19.80;92.00;;;;;;4966862;28;90023;-44
2023/09/29 05:19:19;;;;;;;111.25;56.20;;;19.80;92.00;;;;;;4968652;28;90917;-45
2023/09/29 05:21:45;;;;;;;111.97;56.40;;;19.90;92.00;;;;;;4964781;28;90874;-44
2023/09/29 05:24:10;;;;;;;114.38;56.85;;;19.90;91.80;;;;;;4970519;28;90474;-44
2023/09/29 05:26:36;;;;;;;112.80;56.15;;;19.90;92.30;;;;;;4969787;28;90278;-48
2023/09/29 05:29:01;;;;;;;110.85;56.13;;;19.90;92.20;;;;;;4973570;28;91524;-45
2023/09/29 05:31:27;;;;;;;114.22;56.25;;;19.90;92.20;;;;;;4972338;28;90648;-45
2023/09/29 05:33:54;;;;;;;112.88;56.10;;;19.90;92.10;;;;;;4969364;28;90433;-44
2023/09/29 05:36:21;;;;;;;111.50;56.00;;;19.90;92.10;;;;;;4972790;28;89888;-44
2023/09/29 05:38:46;;;;;;;114.97;56.83;;;19.90;92.30;;;;;;4962868;28;90566;-47
2023/09/29 05:41:12;;;;;;;113.05;56.60;;;19.90;92.40;;;;;;4960141;28;90590;-45
2023/09/29 05:43:38;;;;;;;110.05;56.25;;;19.90;92.60;;;;;;4955798;28;90515;-44
2023/09/29 05:46:03;;;;;;;111.35;56.53;;;19.90;92.20;;;;;;4974323;28;89627;-45
2023/09/29 05:48:29;;;;;;;112.65;56.83;;;19.90;92.30;;;;;;4970510;28;90129;-44
2023/09/29 05:50:55;;;;;;;113.05;56.70;;;19.90;92.40;;;;;;4971671;28;90158;-44
2023/09/29 05:53:21;;;;;;;113.57;56.33;;;20.00;92.40;;;;;;4968260;28;89869;-44
2023/09/29 05:55:46;;;;;;;110.40;56.10;;;19.90;92.20;;;;;;4969238;28;89690;-43
2023/09/29 05:58:12;;;;;;;112.60;56.80;;;19.90;92.30;;;;;;4973761;28;90221;-44
2023/09/29 06:00:38;;;;;;;111.05;56.53;;;19.90;92.20;;;;;;4974265;28;89371;-44
2023/09/29 06:03:03;;;;;;;112.95;56.38;;;19.90;92.20;;;;;;4971482;28;90323;-44
2023/09/29 06:05:29;;;;;;;109.75;55.83;;;19.90;92.20;;;;;;4974009;28;90010;-44
2023/09/29 06:07:56;;;;;;;110.88;55.85;;;19.90;92.00;;;;;;4974306;28;91978;-45
2023/09/29 06:10:21;;;;;;;110.72;56.42;;;19.90;92.20;;;;;;4970778;28;91474;-44
2023/09/29 06:12:47;;;;;;;111.78;56.58;;;19.90;92.20;;;;;;4965882;28;89503;-44
2023/09/29 06:15:13;;;;;;;111.88;56.42;;;19.90;92.40;;;;;;4971306;28;89596;-45
2023/09/29 06:17:39;;;;;;;113.80;56.83;;;19.90;92.20;;;;;;4973629;28;90103;-44
2023/09/29 06:20:05;;;;;;;112.30;55.65;;;19.90;92.70;;;;;;4971605;28;90040;-45
2023/09/29 06:22:31;;;;;;;112.97;56.28;;;19.90;92.20;;;;;;4971615;28;89744;-45
2023/09/29 06:24:56;;;;;;;111.10;55.97;;;19.90;92.30;;;;;;4973016;28;89616;-44
2023/09/29 06:27:23;;;;;;;110.63;55.78;;;19.90;92.10;;;;;;4949460;28;91002;-44
2023/09/29 06:29:50;;;;;;;108.22;55.25;;;19.90;92.20;;;;;;4954898;28;91307;-45
2023/09/29 06:32:19;;;;;;;111.50;56.13;;;19.90;92.10;;;;;;4969488;28;90590;-46
2023/09/29 06:34:45;;;;;;;112.50;56.38;;;20.00;92.30;;;;;;4973793;28;89783;-45
2023/09/29 06:37:10;;;;;;;110.43;55.55;;;19.90;92.30;;;;;;4973691;28;90294;-48
2023/09/29 06:39:36;;;;;;;111.43;56.22;;;19.90;92.10;;;;;;4976218;28;89445;-46
2023/09/29 06:42:03;;;;;;;110.43;55.85;;;19.90;92.10;;;;;;4976232;28;90918;-45
2023/09/29 06:44:30;;;;;;;111.05;56.50;;;20.00;92.20;;;;;;4975539;28;90375;-45
2023/09/29 06:46:55;;;;;;;112.15;56.13;;;20.00;92.10;;;;;;4972898;28;90572;-44
2023/09/29 06:49:21;;;;;;;113.07;56.55;;;20.00;92.30;;;;;;4975286;28;89297;-44
2023/09/29 06:51:46;;;;;;;111.80;55.78;;;20.10;92.10;;;;;;4971911;28;89438;-44
2023/09/29 06:54:12;;;;;;;110.88;56.28;;;20.10;91.90;;;;;;4974797;28;90548;-44
2023/09/29 06:56:38;;;;;;;110.43;56.50;;;20.10;91.80;;;;;;4964944;28;90809;-44
2023/09/29 06:59:03;;;;;;;112.97;56.20;;;20.10;91.80;;;;;;4970801;28;91389;-45
2023/09/29 07:01:29;;;;;;;112.72;56.47;;;20.10;91.80;;;;;;4973259;28;89683;-44
2023/09/29 07:03:54;;;;;;;109.50;55.85;;;20.10;91.80;;;;;;4969814;28;90085;-46
2023/09/29 07:06:23;;;;;;;109.32;55.55;;;20.20;91.90;;;;;;4974887;28;91458;-45
2023/09/29 07:08:49;;;;;;;111.25;56.75;;;20.20;91.60;;;;;;4965748;28;90254;-44
2023/09/29 07:11:15;;;;;;;111.22;56.28;;;20.20;91.50;;;;;;4966404;28;90298;-45
2023/09/29 07:13:40;;;;;;;112.35;56.15;;;20.30;91.80;;;;;;4968114;28;88809;-44
2023/09/29 07:16:06;;;;;;;109.15;56.03;;;20.20;91.90;;;;;;4971779;28;89856;-45
2023/09/29 07:18:32;;;;;;;111.82;56.20;;;20.30;91.90;;;;;;4963477;28;91713;-45
2023/09/29 07:20:58;;;;;;;112.03;56.15;;;20.30;92.00;;;;;;4977313;28;90855;-47
2023/09/29 07:23:24;;;;;;;110.53;55.85;;;20.30;91.80;;;;;;4972462;28;89462;-44
2023/09/29 07:25:53;;;;;;;112.03;55.97;;;20.40;91.70;;;;;;4977517;28;89442;-44
2023/09/29 07:28:19;;;;;;;113.20;56.53;;;20.40;91.90;;;;;;4967488;28;89753;-44
2023/09/29 07:30:47;;;;;;;111.78;56.45;;;20.40;91.90;;;;;;4966351;28;90069;-46
2023/09/29 07:33:12;;;;;;;115.18;56.97;;;20.40;91.50;;;;;;4965695;28;89706;-44
2023/09/29 07:35:38;;;;;;;117.13;57.05;;;20.50;91.70;;;;;;4973609;28;91054;-45
2023/09/29 07:38:05;;;;;;;117.82;57.40;;;20.50;91.70;;;;;;4974046;28;88882;-43
2023/09/29 07:40:32;;;;;;;116.70;58.20;;;20.60;91.60;;;;;;4974771;28;89940;-44
2023/09/29 07:42:58;;;;;;;117.57;57.35;;;20.60;91.50;;;;;;4971849;28;90498;-43
2023/09/29 07:45:24;;;;;;;116.25;57.65;;;20.60;91.10;;;;;;4967489;28;90994;-44
2023/09/29 07:47:50;;;;;;;118.53;58.10;;;20.70;91.30;;;;;;4967353;28;90013;-45
2023/09/29 07:50:17;;;;;;;116.53;57.83;;;20.70;91.10;;;;;;4970511;28;90236;-44
2023/09/29 07:52:43;;;;;;;120.85;58.35;;;20.70;91.00;;;;;;4970054;28;90148;-45
2023/09/29 07:55:12;;;;;;;118.63;58.35;;;20.70;91.00;;;;;;4970322;28;90012;-44
2023/09/29 07:57:38;;;;;;;119.88;58.53;;;20.70;91.10;;;;;;4968604;28;89734;-44
2023/09/29 08:00:05;;;;;;;121.68;58.97;;;20.70;91.00;;;;;;4962669;28;89862;-44
2023/09/29 08:02:31;;;;;;;119.57;58.42;;;20.70;91.00;;;;;;4965849;28;93299;-44
2023/09/29 08:04:58;;;;;;;122.18;58.53;;;20.80;91.10;;;;;;4967474;28;94427;-44
2023/09/29 08:07:23;;;;;;;116.88;58.42;;;20.80;91.30;;;;;;4973378;28;89829;-45
2023/09/29 08:09:50;;;;;;;124.40;59.50;;;20.80;91.40;;;;;;4968376;28;92244;-44
2023/09/29 08:12:17;;;;;;;118.88;58.55;;;20.80;91.50;;;;;;4967668;28;89778;-45
2023/09/29 08:14:43;;;;;;;120.10;58.67;;;20.80;91.40;;;;;;4971326;28;89988;-43
2023/09/29 08:17:09;;;;;;;115.05;57.47;;;20.80;91.50;;;;;;4960596;28;90046;-44
2023/09/29 08:19:35;;;;;;;118.45;57.63;;;20.70;93.70;;;;;;4967227;28;89492;-44
2023/09/29 08:22:01;;;;;;;119.20;58.22;;;20.70;93.60;;;;;;4961884;28;90154;-43
2023/09/29 08:24:27;;;;;;;115.30;57.10;;;20.70;93.90;;;;;;4966070;28;92400;-45
2023/09/29 08:26:52;;;;;;;117.55;57.20;;;20.80;94.10;;;;;;4962619;28;89431;-43
2023/09/29 08:29:18;;;;;;;118.18;56.92;;;20.80;94.30;;;;;;4965703;28;90824;-44
2023/09/29 08:31:44;;;;;;;113.80;56.58;;;20.90;94.30;;;;;;4966726;28;90403;-44
2023/09/29 08:34:09;;;;;;;115.25;56.97;;;20.90;94.30;;;;;;4965321;28;91544;-45
2023/09/29 08:36:35;;;;;;;114.10;56.95;;;20.90;94.00;;;;;;4963540;28;89566;-45
2023/09/29 08:39:01;;;;;;;118.63;57.25;;;21.00;93.90;;;;;;4966871;28;91008;-46
2023/09/29 08:41:28;;;;;;;118.50;57.50;;;21.00;94.40;;;;;;4968909;28;89915;-44
2023/09/29 08:43:54;;;;;;;113.50;56.92;;;20.90;94.80;;;;;;4959539;28;91237;-44
2023/09/29 08:46:20;;;;;;;119.05;57.47;;;21.00;94.70;;;;;;4962055;28;91459;-44
2023/09/29 08:48:51;;;;;;;116.13;57.42;;;20.90;95.00;;;;;;4965619;28;90112;-43
2023/09/29 08:51:19;;;;;;;115.18;57.38;;;20.90;95.50;;;;;;4966298;28;90221;-47
2023/09/29 08:53:45;;;;;;;117.90;57.65;;;21.00;94.70;;;;;;4948346;28;90568;-47
2023/09/29 08:56:13;;;;;;;115.75;57.55;;;21.00;94.80;;;;;;4943842;28;90179;-45
2023/09/29 08:58:40;;;;;;;116.90;57.63;;;21.00;95.10;;;;;;4965303;28;90782;-46
2023/09/29 09:01:05;;;;;;;115.20;57.40;;;20.80;95.20;;;;;;4949321;28;90234;-44
2023/09/29 09:03:32;;;;;;;116.93;57.80;;;20.90;95.20;;;;;;4943474;28;91164;-44
2023/09/29 09:05:58;;;;;;;120.60;57.63;;;20.90;95.00;;;;;;4967719;28;90255;-43
2023/09/29 09:08:25;;;;;;;115.90;56.78;;;21.00;94.70;;;;;;4962197;28;89640;-46
2023/09/29 09:10:58;;;;;;;115.22;57.25;;;21.00;94.50;;;;;;4971197;28;90081;-45
2023/09/29 09:13:26;;;;;;;117.53;57.90;;;21.00;94.40;;;;;;4968362;28;90299;-44
2023/09/29 09:15:59;;;;;;;116.70;57.50;;;21.10;94.20;;;;;;4950472;28;89150;-44
2023/09/29 09:18:27;;;;;;;114.78;57.17;;;21.00;94.10;;;;;;4967128;28;91928;-43
2023/09/29 09:20:53;;;;;;;114.43;56.92;;;21.10;94.10;;;;;;4967395;28;89938;-44
2023/09/29 09:23:19;;;;;;;117.85;57.00;;;21.10;93.80;;;;;;4969680;28;91559;-44
2023/09/29 09:25:45;;;;;;;114.43;56.92;;;21.10;93.80;;;;;;4959919;28;91454;-44
2023/09/29 09:28:19;;;;;;;112.75;56.75;;;21.10;93.50;;;;;;4971882;28;90445;-44
2023/09/29 09:30:46;;;;;;;116.55;56.58;;;21.10;93.60;;;;;;4970822;28;89415;-43
2023/09/29 09:33:21;;;;;;;112.38;56.70;;;21.10;93.50;;;;;;4961303;28;91166;-43
2023/09/29 09:35:50;;;;;;;115.47;56.88;;;21.20;93.40;;;;;;4972442;28;89954;-43
2023/09/29 09:38:16;;;;;;;113.57;56.42;;;21.30;93.00;;;;;;4961940;28;91304;-44
2023/09/29 09:40:43;;;;;;;112.60;56.13;;;21.30;92.80;;;;;;4970797;28;89619;-43
2023/09/29 09:43:10;;;;;;;132.90;61.53;;;21.40;92.50;;;;;;4967317;28;90562;-39
2023/09/29 09:45:42;;;;;;;131.10;61.30;;;21.50;93.30;;;;;;4970096;28;90176;-41
2023/09/29 09:48:09;;;;;;;127.53;61.25;;;21.50;93.80;;;;;;4969205;28;90765;-41
2023/09/29 09:50:38;;;;;;;121.15;59.88;;;21.60;93.70;;;;;;4960680;28;90534;-43
2023/09/29 09:53:07;;;;;;;121.60;60.22;;;21.80;92.80;;;;;;4966546;28;90790;-38
2023/09/29 09:55:41;;;;;;;124.60;60.38;;;22.00;92.30;;;;;;4967100;28;89740;-39
2023/09/29 09:58:13;;;;;;;123.85;59.38;;;22.10;91.40;;;;;;4959921;28;94061;-39
2023/09/29 10:00:45;;;;;;;120.40;59.40;;;22.10;91.20;;;;;;4948620;28;89914;-40
2023/09/29 10:03:13;;;;;;;125.60;59.78;;;22.00;91.10;;;;;;4965214;28;90976;-42
2023/09/29 10:05:46;;;;;;;117.80;59.03;;;22.00;91.00;;;;;;4962297;28;90536;-39
2023/09/29 10:08:24;;;;;;;116.38;58.53;;;22.00;90.90;;;;;;4966717;28;89971;-42
2023/09/29 10:10:49;;;;;;;116.25;58.38;;;22.00;90.80;;;;;;4965123;28;89576;-47
2023/09/29 10:13:16;;;;;;;112.57;57.97;;;22.00;90.90;;;;;;4946588;28;91054;-45
2023/09/29 10:15:42;;;;;;;111.97;58.28;;;22.00;91.00;;;;;;4967674;28;91044;-46
2023/09/29 10:18:16;;;;;;;110.32;57.35;;;22.10;90.90;;;;;;4974568;28;90153;-49
2023/09/29 10:20:41;;;;;;;111.18;57.45;;;22.00;91.00;;;;;;4968422;28;89739;-47
2023/09/29 10:23:13;;;;;;;107.63;57.15;;;22.00;91.10;;;;;;4967406;28;89934;-46
2023/09/29 10:25:44;;;;;;;110.28;57.13;;;22.00;91.40;;;;;;4964510;28;90527;-48
2023/09/29 10:28:12;;;;;;;106.75;57.25;;;21.90;92.20;;;;;;4964851;28;90424;-42
2023/09/29 10:30:39;;;;;;;105.28;57.33;;;21.80;92.50;;;;;;4966599;28;91647;-46
2023/09/29 10:33:13;;;;;;;146.10;60.92;;;21.80;92.60;;;;;;4984864;28;89787;-41
2023/09/29 10:35:46;;;;;;;148.82;60.35;;;21.90;92.20;;;;;;4986475;28;78017;-39
2023/09/29 10:38:33;;;;;;;151.40;61.17;;;22.00;91.70;;;;;;4987721;28;75344;-38
2023/09/29 10:40:59;;;;;;;141.43;60.17;;;22.00;91.70;;;;;;4961105;28;91374;-40
2023/09/29 10:43:24;;;;;;;140.35;59.63;;;22.00;91.20;;;;;;4969148;28;91348;-39
2023/09/29 10:45:53;;;;;;;268.42;66.68;;;21.90;91.20;;;;;;4968515;28;89585;-43
2023/09/29 10:48:22;;;;;;;177.35;61.85;;;21.90;91.60;;;;;;4951186;28;89910;-46
2023/09/29 10:50:50;;;;;;;164.82;60.47;;;22.00;90.90;;;;;;4962625;28;90138;-44
2023/09/29 10:53:18;;;;;;;163.93;60.75;;;21.90;91.10;;;;;;4963807;28;94518;-44
2023/09/29 10:55:49;;;;;;;156.98;59.28;;;21.90;91.00;;;;;;4967613;28;88844;-45
2023/09/29 10:58:16;;;;;;;164.15;60.33;;;21.70;90.40;;;;;;4968685;28;91146;-44
2023/09/29 11:00:50;;;;;;;171.63;62.22;;;21.70;90.90;;;;;;4968778;28;89950;-43
2023/09/29 11:03:21;;;;;;;177.32;62.28;;;21.80;90.70;;;;;;4969231;28;92038;-45
2023/09/29 11:05:48;;;;;;;;;;;21.80;90.90;;;;;;4971914;28;90832;-43
2023/09/29 11:08:17;;;;;;;272.35;102.55;;;21.70;90.90;;;;;;4965527;28;90506;-44
2023/09/29 11:10:56;;;;;;;155.27;59.75;;;21.70;90.30;;;;;;4969222;28;90030;-45
2023/09/29 11:13:23;;;;;;;147.10;58.70;;;21.70;93.90;;;;;;4969094;28;90036;-43
2023/09/29 11:15:49;;;;;;;155.25;59.97;;;21.70;92.20;;;;;;4977367;28;90769;-44
2023/09/29 11:18:33;;;;;;;156.88;60.83;;;21.70;90.70;;;;;;4967387;28;89851;-45
2023/09/29 11:21:04;;;;;;;154.10;59.20;;;21.60;90.60;;;;;;4965366;28;92384;-44
2023/09/29 11:23:49;;;;;;;154.60;59.63;;;21.60;90.80;;;;;;4959034;28;90318;-46
2023/09/29 11:26:15;;;;;;;156.75;59.75;;;21.50;90.10;;;;;;4968429;28;90003;-43
2023/09/29 11:28:47;;;;;;;159.15;60.38;;;21.60;89.70;;;;;;4965989;28;91609;-45
2023/09/29 11:31:14;;;;;;;157.93;60.60;;;21.60;89.90;;;;;;4963258;28;91139;-43
2023/09/29 11:33:44;;;;;;;138.52;58.40;;;21.50;87.90;;;;;;4964898;28;90446;-46
2023/09/29 11:36:14;;;;;;;130.77;57.83;;;21.50;86.60;;;;;;4969119;28;90814;-45
2023/09/29 11:38:41;;;;;;;132.10;58.40;;;21.50;87.10;;;;;;4955761;28;90247;-44
2023/09/29 11:41:06;;;;;;;125.30;57.50;;;21.50;86.80;;;;;;4973041;28;89934;-43
2023/09/29 11:43:35;;;;;;;125.60;57.60;;;21.50;87.30;;;;;;4971248;28;90789;-45
2023/09/29 11:46:01;;;;;;;128.35;58.05;;;21.50;86.80;;;;;;4970212;28;89435;-44
2023/09/29 11:48:27;;;;;;;129.27;57.58;;;21.50;87.70;;;;;;4968552;28;89980;-43
2023/09/29 11:50:53;;;;;;;127.35;57.90;;;21.50;87.30;;;;;;4964399;28;90162;-44
2023/09/29 11:53:19;;;;;;;125.40;57.33;;;21.50;87.60;;;;;;4968125;28;90838;-44
2023/09/29 11:55:45;;;;;;;127.47;57.30;;;21.50;86.60;;;;;;4968273;28;90066;-46
2023/09/29 11:58:11;;;;;;;125.88;58.00;;;21.50;87.50;;;;;;4969965;28;89590;-44
2023/09/29 12:00:37;;;;;;;127.63;58.45;;;21.50;86.20;;;;;;4969470;28;90045;-45
2023/09/29 12:03:05;;;;;;;127.40;59.00;;;21.40;86.20;;;;;;4965404;28;90357;-44
2023/09/29 12:05:35;;;;;;;124.97;58.58;;;21.40;85.30;;;;;;4965983;28;90476;-43
2023/09/29 12:08:06;;;;;;;126.82;58.40;;;21.50;85.40;;;;;;4962477;28;90593;-44
2023/09/29 12:10:32;;;;;;;126.13;58.47;;;21.50;84.70;;;;;;4962371;28;89285;-43
2023/09/29 12:12:59;;;;;;;124.30;59.08;;;21.50;84.90;;;;;;4966742;28;90034;-43
2023/09/29 12:15:25;;;;;;;124.93;58.75;;;21.50;84.10;;;;;;4963642;28;90319;-44
2023/09/29 12:17:51;;;;;;;125.13;59.00;;;21.60;82.40;;;;;;4966995;28;91870;-40